EG-0006 weather

Fa'id Air Base
Ismailia Governorate, Egypt

Public forecast

Using degrees Celsius for public forecast. Weather courtesy of forecast.io.

METAR (pilot weather report)

Closest report is Cairo International Airport, 46.4 nm (86.0 km) WSW. Retrieved 2019/03/21 05:00 UTC (11 minutes ago):

HECA 210500Z 03010KT 9999 SCT025 BKN070 16/11 Q1016 NOSIG

TAF (pilot weather forecast)

Closest forecast is Cairo International Airport, 46.4 nm (86.0 km) WSW. Retrieved 2019/03/21 00:40 UTC (5 hours ago):

TAF HECA 202300Z 2100/2206 05010KT CAVOK TEMPO 2100/2108 VRB03KT 4000 BR NSC